createdAt,value
2022-12-09T00:00:48.283Z,9.40
2022-12-09T00:03:16.912Z,9.40
2022-12-09T00:05:46.610Z,9.40
2022-12-09T00:08:13.134Z,9.40
2022-12-09T00:10:40.116Z,9.40
2022-12-09T00:13:06.786Z,9.40
2022-12-09T00:15:33.325Z,9.40
2022-12-09T00:18:00.027Z,9.40
2022-12-09T00:20:26.519Z,9.40
2022-12-09T00:22:53.120Z,9.30
2022-12-09T00:25:30.771Z,9.30
2022-12-09T00:27:57.262Z,9.40
2022-12-09T00:30:23.752Z,9.40
2022-12-09T00:32:50.539Z,9.40
2022-12-09T00:35:17.090Z,9.40
2022-12-09T00:37:43.770Z,9.40
2022-12-09T00:40:10.693Z,9.40
2022-12-09T00:42:37.604Z,9.30
2022-12-09T00:45:04.081Z,9.40
2022-12-09T00:47:30.614Z,9.40
2022-12-09T00:49:57.390Z,9.30
2022-12-09T00:52:23.851Z,9.30
2022-12-09T00:54:50.484Z,9.40
2022-12-09T00:57:17.501Z,9.30
2022-12-09T00:59:44.035Z,9.40
2022-12-09T01:02:10.858Z,9.30
2022-12-09T01:04:37.445Z,9.40
2022-12-09T01:07:03.968Z,9.40
2022-12-09T01:09:30.504Z,9.40
2022-12-09T01:11:57.316Z,9.40
2022-12-09T01:14:24.035Z,9.40
2022-12-09T01:16:50.733Z,9.30
2022-12-09T01:19:17.265Z,9.30
2022-12-09T01:21:43.770Z,9.30
2022-12-09T01:24:12.572Z,9.40
2022-12-09T01:26:39.272Z,9.40
2022-12-09T01:29:05.834Z,9.40
2022-12-09T01:31:32.417Z,9.40
2022-12-09T01:33:59.352Z,9.40
2022-12-09T01:36:26.132Z,9.40
2022-12-09T01:38:52.668Z,9.40
2022-12-09T01:41:19.304Z,9.40
2022-12-09T01:43:45.971Z,9.40
2022-12-09T01:46:12.921Z,9.40
2022-12-09T01:48:39.554Z,9.30
2022-12-09T01:51:06.022Z,9.30
2022-12-09T01:53:32.808Z,9.30
2022-12-09T01:55:59.540Z,9.40
2022-12-09T01:58:26.072Z,9.40
2022-12-09T02:00:52.709Z,9.30
2022-12-09T02:03:19.610Z,9.30
2022-12-09T02:05:46.331Z,9.40
2022-12-09T02:08:12.828Z,9.40
2022-12-09T02:10:39.641Z,9.40
2022-12-09T02:13:06.401Z,9.40
2022-12-09T02:15:32.904Z,9.40
2022-12-09T02:17:59.683Z,9.40
2022-12-09T02:20:26.504Z,9.40
2022-12-09T02:22:53.300Z,9.40
2022-12-09T02:25:19.903Z,9.40
2022-12-09T02:27:46.634Z,9.40
2022-12-09T02:30:13.609Z,9.30
2022-12-09T02:32:40.288Z,9.40
2022-12-09T02:35:06.802Z,9.40
2022-12-09T02:37:33.450Z,9.40
2022-12-09T02:40:00.098Z,9.40
2022-12-09T02:42:26.645Z,9.40
2022-12-09T02:44:53.320Z,9.40
2022-12-09T02:47:20.034Z,9.40
2022-12-09T02:49:46.894Z,9.40
2022-12-09T02:52:13.373Z,9.30
2022-12-09T02:54:39.834Z,9.40
2022-12-09T02:57:06.414Z,9.40
2022-12-09T02:59:32.929Z,9.30
2022-12-09T03:01:59.577Z,9.30
2022-12-09T03:04:26.138Z,9.40
2022-12-09T03:06:53.009Z,9.40
2022-12-09T03:09:19.676Z,9.40
2022-12-09T03:11:46.139Z,9.40
2022-12-09T03:14:12.634Z,9.30
2022-12-09T03:16:39.251Z,9.40
2022-12-09T03:19:06.047Z,9.40
2022-12-09T03:21:32.887Z,9.40
2022-12-09T03:23:59.386Z,9.40
2022-12-09T03:26:30.935Z,9.40
2022-12-09T03:28:57.461Z,9.40
2022-12-09T03:31:23.992Z,9.30
2022-12-09T03:33:50.603Z,9.40
2022-12-09T03:36:17.506Z,9.30
2022-12-09T03:38:44.048Z,9.40
2022-12-09T03:41:10.824Z,9.40
2022-12-09T03:43:37.344Z,9.30
2022-12-09T03:46:03.900Z,9.40
2022-12-09T03:48:30.801Z,9.40
2022-12-09T03:50:57.264Z,9.30
2022-12-09T03:53:23.917Z,9.30
2022-12-09T03:55:50.422Z,9.40
2022-12-09T03:58:16.862Z,9.30
2022-12-09T04:00:43.823Z,9.30
2022-12-09T04:03:10.871Z,9.30
2022-12-09T04:05:37.378Z,9.40
2022-12-09T04:08:03.862Z,9.40
2022-12-09T04:10:30.544Z,9.30
2022-12-09T04:12:57.189Z,9.30
2022-12-09T04:15:23.734Z,9.30
2022-12-09T04:17:50.625Z,9.30
2022-12-09T04:20:17.171Z,9.30
2022-12-09T04:22:43.914Z,9.30
2022-12-09T04:25:10.451Z,9.30
2022-12-09T04:27:36.969Z,9.40
2022-12-09T04:30:03.644Z,9.40
2022-12-09T04:32:30.520Z,9.40
2022-12-09T04:34:57.318Z,9.40
2022-12-09T04:37:23.831Z,9.30
2022-12-09T04:39:50.444Z,9.30
2022-12-09T04:42:17.012Z,9.30
2022-12-09T04:44:43.544Z,9.30
2022-12-09T04:47:10.291Z,9.40
2022-12-09T04:49:37.018Z,9.30
2022-12-09T04:52:03.479Z,9.30
2022-12-09T04:54:30.331Z,9.40
2022-12-09T04:56:57.047Z,9.30
2022-12-09T04:59:23.725Z,9.40
2022-12-09T05:01:50.361Z,9.40
2022-12-09T05:04:17.422Z,9.30
2022-12-09T05:06:44.231Z,9.30
2022-12-09T05:09:10.964Z,9.30
2022-12-09T05:11:38.177Z,9.40
2022-12-09T05:14:04.911Z,9.30
2022-12-09T05:16:31.774Z,9.30
2022-12-09T05:18:58.534Z,9.40
2022-12-09T05:21:25.318Z,9.40
2022-12-09T05:23:51.848Z,9.30
2022-12-09T05:26:18.771Z,9.30
2022-12-09T05:28:45.678Z,9.30
2022-12-09T05:31:12.396Z,9.30
2022-12-09T05:33:39.557Z,9.30
2022-12-09T05:36:06.234Z,9.40
2022-12-09T05:38:32.870Z,9.40
2022-12-09T05:40:59.395Z,9.40
2022-12-09T05:43:25.988Z,9.30
2022-12-09T05:45:52.944Z,9.30
2022-12-09T05:48:19.612Z,9.30
2022-12-09T05:50:46.168Z,9.30
2022-12-09T05:53:12.856Z,9.40
2022-12-09T05:55:39.528Z,9.40
2022-12-09T05:58:06.381Z,9.30
2022-12-09T06:00:33.025Z,9.40
2022-12-09T06:02:59.572Z,9.30
2022-12-09T06:05:27.241Z,9.40
2022-12-09T06:07:53.998Z,9.30
2022-12-09T06:10:20.639Z,9.30
2022-12-09T06:12:47.346Z,9.30
2022-12-09T06:15:20.301Z,9.30
2022-12-09T06:17:48.233Z,9.30
2022-12-09T06:20:15.174Z,9.30
2022-12-09T06:22:42.460Z,9.30
2022-12-09T06:25:09.383Z,9.30
2022-12-09T06:27:36.207Z,9.30
2022-12-09T06:30:03.256Z,9.30
2022-12-09T06:32:30.128Z,9.30
2022-12-09T06:34:56.749Z,9.30
2022-12-09T06:37:23.588Z,9.30
2022-12-09T06:39:50.319Z,9.30
2022-12-09T06:42:16.821Z,9.30
2022-12-09T06:44:43.675Z,9.30
2022-12-09T06:47:10.553Z,9.30
2022-12-09T06:49:37.215Z,9.30
2022-12-09T06:52:04.485Z,9.30
2022-12-09T06:54:31.049Z,9.30
2022-12-09T06:56:57.809Z,9.30
2022-12-09T06:59:24.698Z,9.30
2022-12-09T07:01:51.593Z,9.30
2022-12-09T07:04:18.736Z,9.30
2022-12-09T07:06:45.441Z,9.30
2022-12-09T07:09:12.245Z,9.30
2022-12-09T07:11:39.181Z,9.30
2022-12-09T07:14:06.076Z,9.40
2022-12-09T07:16:32.840Z,9.30
2022-12-09T07:18:59.668Z,9.30
2022-12-09T07:21:26.978Z,9.30
2022-12-09T07:23:53.933Z,9.30
2022-12-09T07:26:20.714Z,9.30
2022-12-09T07:28:47.447Z,9.30
2022-12-09T07:31:14.437Z,9.30
2022-12-09T07:33:41.430Z,9.30
2022-12-09T07:36:08.435Z,9.30
2022-12-09T07:38:35.169Z,9.30
2022-12-09T07:41:01.696Z,9.30
2022-12-09T07:43:28.337Z,9.30
2022-12-09T07:45:55.100Z,9.30
2022-12-09T07:48:21.772Z,9.30
2022-12-09T07:50:48.544Z,9.30
2022-12-09T07:53:15.421Z,9.30
2022-12-09T07:55:42.001Z,9.30
2022-12-09T07:58:08.483Z,9.30
2022-12-09T08:00:35.307Z,9.30
2022-12-09T08:03:01.911Z,9.30
2022-12-09T08:05:29.319Z,9.30
2022-12-09T08:07:56.141Z,9.30
2022-12-09T08:10:23.077Z,9.30
2022-12-09T08:12:50.091Z,9.30
2022-12-09T08:15:16.946Z,9.30
2022-12-09T08:17:43.644Z,9.30
2022-12-09T08:20:10.488Z,9.30
2022-12-09T08:22:37.722Z,9.30
2022-12-09T08:25:04.763Z,9.30
2022-12-09T08:27:31.767Z,9.30
2022-12-09T08:29:58.497Z,9.30
2022-12-09T08:32:25.529Z,9.30
2022-12-09T08:34:52.548Z,9.30
2022-12-09T08:37:19.463Z,9.30
2022-12-09T08:39:46.021Z,9.30
2022-12-09T08:42:12.844Z,9.30
2022-12-09T08:44:39.424Z,9.30
2022-12-09T08:47:06.092Z,9.40
2022-12-09T08:49:33.071Z,9.30
2022-12-09T08:51:59.729Z,9.30
2022-12-09T08:54:26.282Z,9.30
2022-12-09T08:56:53.019Z,9.30
2022-12-09T08:59:19.619Z,9.40
2022-12-09T09:01:46.567Z,9.30
2022-12-09T09:04:13.560Z,9.30
2022-12-09T09:06:40.549Z,9.30
2022-12-09T09:09:07.770Z,9.30
2022-12-09T09:11:34.591Z,9.30
2022-12-09T09:14:01.520Z,9.30
2022-12-09T09:16:28.330Z,9.30
2022-12-09T09:18:55.438Z,9.30
2022-12-09T09:21:22.514Z,9.30
2022-12-09T09:23:49.439Z,9.30
2022-12-09T09:26:16.021Z,9.30
2022-12-09T09:28:43.246Z,9.30
2022-12-09T09:31:10.146Z,9.30
2022-12-09T09:33:37.279Z,9.30
2022-12-09T09:36:09.617Z,9.30
2022-12-09T09:38:36.754Z,9.30
2022-12-09T09:41:03.695Z,9.30
2022-12-09T09:43:30.619Z,9.30
2022-12-09T09:45:57.264Z,9.30
2022-12-09T09:48:24.604Z,9.30
2022-12-09T09:50:51.227Z,9.40
2022-12-09T09:53:17.689Z,9.30
2022-12-09T09:55:44.719Z,9.30
2022-12-09T09:58:11.698Z,9.30
2022-12-09T10:00:38.253Z,9.30
2022-12-09T10:03:05.878Z,9.30
2022-12-09T10:05:32.970Z,9.30
2022-12-09T10:08:00.329Z,9.30
2022-12-09T10:10:27.275Z,9.30
2022-12-09T10:12:58.996Z,9.30
2022-12-09T10:15:29.742Z,9.30
2022-12-09T10:17:57.204Z,9.30
2022-12-09T10:20:25.607Z,9.30
2022-12-09T10:22:52.446Z,9.30
2022-12-09T10:25:19.443Z,9.30
2022-12-09T10:27:46.095Z,9.30
2022-12-09T10:30:13.008Z,9.30
2022-12-09T10:32:40.192Z,9.30
2022-12-09T10:35:07.109Z,9.30
2022-12-09T10:37:33.885Z,9.30
2022-12-09T10:40:00.879Z,9.30
2022-12-09T10:42:34.621Z,9.30
2022-12-09T10:45:01.649Z,9.30
2022-12-09T10:47:28.274Z,9.30
2022-12-09T10:49:55.548Z,9.30
2022-12-09T10:52:22.289Z,9.30
2022-12-09T10:54:49.610Z,9.30
2022-12-09T10:57:17.074Z,9.30
2022-12-09T10:59:43.747Z,9.30
2022-12-09T11:02:10.902Z,9.30
2022-12-09T11:04:37.784Z,9.30
2022-12-09T11:07:05.426Z,9.30
2022-12-09T11:09:33.212Z,9.30
2022-12-09T11:12:00.162Z,9.30
2022-12-09T11:14:27.232Z,9.30
2022-12-09T11:16:53.908Z,9.30
2022-12-09T11:19:21.503Z,9.30
2022-12-09T11:21:48.543Z,9.30
2022-12-09T11:24:15.647Z,9.30
2022-12-09T11:26:42.608Z,9.30
2022-12-09T11:29:09.436Z,9.30
2022-12-09T11:31:36.409Z,9.30
2022-12-09T11:34:03.348Z,9.30
2022-12-09T11:36:31.264Z,9.30
2022-12-09T11:38:58.046Z,9.30
2022-12-09T11:41:24.522Z,9.30
2022-12-09T11:43:50.977Z,9.30
2022-12-09T11:46:17.528Z,9.30
2022-12-09T11:48:44.186Z,9.30
2022-12-09T11:51:10.701Z,9.30
2022-12-09T11:53:37.159Z,9.30
2022-12-09T11:56:03.678Z,9.30
2022-12-09T11:58:30.122Z,9.30
2022-12-09T12:00:56.599Z,9.30
2022-12-09T12:03:23.105Z,9.40
2022-12-09T12:05:49.651Z,9.30
2022-12-09T12:08:16.144Z,9.30
2022-12-09T12:10:42.714Z,9.30
2022-12-09T12:13:09.174Z,9.30
2022-12-09T12:15:35.655Z,9.40
2022-12-09T12:18:02.106Z,9.40
2022-12-09T12:20:28.565Z,9.30
2022-12-09T12:22:55.228Z,9.40
2022-12-09T12:25:21.907Z,9.30
2022-12-09T12:27:48.467Z,9.30
2022-12-09T12:30:14.938Z,9.30
2022-12-09T12:32:41.414Z,9.30
2022-12-09T12:35:08.038Z,9.30
2022-12-09T12:37:34.612Z,9.30
2022-12-09T12:40:01.078Z,9.30
2022-12-09T12:42:27.537Z,9.30
2022-12-09T12:44:54.002Z,9.30
2022-12-09T12:47:20.461Z,9.40
2022-12-09T12:49:46.925Z,9.40
2022-12-09T12:52:46.949Z,9.40
2022-12-09T12:54:59.852Z,9.40
2022-12-09T12:57:31.198Z,9.40
2022-12-09T12:59:57.668Z,9.30
2022-12-09T13:02:24.221Z,9.40
2022-12-09T13:04:50.840Z,9.30
2022-12-09T13:07:17.300Z,9.30
2022-12-09T13:09:43.779Z,9.30
2022-12-09T13:12:10.259Z,9.40
2022-12-09T13:14:36.731Z,9.40
2022-12-09T13:17:03.256Z,9.40
2022-12-09T13:19:29.740Z,9.40
2022-12-09T13:21:56.201Z,9.40
2022-12-09T13:24:22.655Z,9.40
2022-12-09T13:26:49.132Z,9.40
2022-12-09T13:29:15.593Z,9.40
2022-12-09T13:31:42.064Z,9.60
2022-12-09T13:34:08.526Z,9.70
2022-12-09T13:36:36.681Z,9.80
2022-12-09T13:39:03.391Z,10.00
2022-12-09T13:41:29.890Z,10.00
2022-12-09T13:43:56.367Z,10.10
2022-12-09T13:46:22.926Z,10.10
2022-12-09T13:48:49.418Z,10.00
2022-12-09T13:51:15.895Z,10.00
2022-12-09T13:53:45.797Z,9.90
2022-12-09T13:56:12.862Z,9.90
2022-12-09T13:58:39.320Z,9.90
2022-12-09T14:01:05.782Z,9.80
2022-12-09T14:03:32.294Z,9.80
2022-12-09T14:05:58.824Z,9.80
2022-12-09T14:08:25.323Z,9.80
2022-12-09T14:10:51.825Z,9.80
2022-12-09T14:13:18.306Z,9.80
2022-12-09T14:15:44.830Z,9.80
2022-12-09T14:18:11.293Z,9.70
2022-12-09T14:20:37.758Z,9.70
2022-12-09T14:23:04.218Z,9.70
2022-12-09T14:25:30.663Z,9.70
2022-12-09T14:27:57.132Z,9.70
2022-12-09T14:30:23.594Z,9.70
2022-12-09T14:32:50.053Z,9.70
2022-12-09T14:35:16.516Z,9.70
2022-12-09T14:37:42.974Z,9.60
2022-12-09T14:40:09.885Z,9.60
2022-12-09T14:42:36.770Z,9.60
2022-12-09T14:45:03.217Z,9.70
2022-12-09T14:47:29.688Z,9.60
2022-12-09T14:49:56.147Z,9.60
2022-12-09T14:52:22.610Z,9.60
2022-12-09T14:54:49.066Z,9.70
2022-12-09T14:57:16.154Z,9.80
2022-12-09T14:59:43.922Z,9.90
2022-12-09T15:02:10.437Z,10.10
2022-12-09T15:04:37.090Z,10.20
2022-12-09T15:07:03.654Z,10.30
2022-12-09T15:09:30.123Z,10.20
2022-12-09T15:11:56.602Z,10.20
2022-12-09T15:14:23.063Z,10.10
2022-12-09T15:16:50.959Z,10.10
2022-12-09T15:19:36.975Z,10.00
2022-12-09T15:22:04.061Z,10.00
2022-12-09T15:24:48.954Z,10.00
2022-12-09T15:27:16.488Z,9.90
2022-12-09T15:29:42.935Z,9.90
2022-12-09T15:32:09.384Z,9.90
2022-12-09T15:34:35.841Z,9.80
2022-12-09T15:37:02.283Z,9.80
2022-12-09T15:39:28.742Z,9.70
2022-12-09T15:41:55.194Z,9.70
2022-12-09T15:44:21.663Z,9.70
2022-12-09T15:46:48.268Z,9.60
2022-12-09T15:49:14.785Z,9.60
2022-12-09T15:51:41.242Z,9.60
2022-12-09T15:54:07.727Z,9.60
2022-12-09T15:56:34.193Z,9.60
2022-12-09T15:59:00.655Z,9.70
2022-12-09T16:01:27.136Z,9.60
2022-12-09T16:03:53.647Z,9.60
2022-12-09T16:06:20.102Z,9.60
2022-12-09T16:08:46.587Z,9.60
2022-12-09T16:11:13.034Z,9.60
2022-12-09T16:13:39.517Z,9.60
2022-12-09T16:16:06.030Z,9.50
2022-12-09T16:18:32.548Z,9.50
2022-12-09T16:20:59.011Z,9.50
2022-12-09T16:23:25.481Z,9.50
2022-12-09T16:25:51.947Z,9.50
2022-12-09T16:28:18.444Z,9.50
2022-12-09T16:30:44.899Z,9.60
2022-12-09T16:33:11.400Z,9.70
2022-12-09T16:35:37.867Z,9.80
2022-12-09T16:38:04.371Z,10.00
2022-12-09T16:40:30.834Z,10.10
2022-12-09T16:42:57.332Z,10.10
2022-12-09T16:45:23.851Z,10.10
2022-12-09T16:47:50.353Z,10.10
2022-12-09T16:50:16.856Z,10.10
2022-12-09T16:52:43.308Z,10.10
2022-12-09T16:55:09.776Z,10.00
2022-12-09T16:57:36.237Z,10.00
2022-12-09T17:00:02.682Z,10.00
2022-12-09T17:02:29.201Z,9.90
2022-12-09T17:04:55.735Z,9.90
2022-12-09T17:07:22.433Z,9.90
2022-12-09T17:09:48.983Z,9.80
2022-12-09T17:12:15.494Z,9.80
2022-12-09T17:14:41.995Z,9.80
2022-12-09T17:17:08.485Z,9.80
2022-12-09T17:19:34.985Z,9.70
2022-12-09T17:22:01.452Z,9.70
2022-12-09T17:24:27.915Z,9.70
2022-12-09T17:26:54.380Z,9.70
2022-12-09T17:29:20.861Z,9.70
2022-12-09T17:31:47.353Z,9.70
2022-12-09T17:34:13.859Z,9.70
2022-12-09T17:36:40.338Z,9.60
2022-12-09T17:39:06.822Z,9.60
2022-12-09T17:41:33.263Z,9.60
2022-12-09T17:43:59.745Z,9.60
2022-12-09T17:46:26.241Z,9.60
2022-12-09T17:48:52.775Z,9.60
2022-12-09T17:51:19.224Z,9.60
2022-12-09T17:53:45.689Z,9.60
2022-12-09T17:56:12.153Z,9.60
2022-12-09T17:58:38.611Z,9.60
2022-12-09T18:01:05.132Z,9.60
2022-12-09T18:03:55.131Z,9.60
2022-12-09T18:06:18.083Z,9.50
2022-12-09T18:08:44.528Z,9.50
2022-12-09T18:11:12.114Z,9.50
2022-12-09T18:13:38.562Z,9.50
2022-12-09T18:16:05.019Z,9.50
2022-12-09T18:18:31.487Z,9.50
2022-12-09T18:20:57.957Z,9.70
2022-12-09T18:23:24.368Z,9.80
2022-12-09T18:25:50.853Z,10.00
2022-12-09T18:28:17.324Z,10.20
2022-12-09T18:30:43.913Z,10.30
2022-12-09T18:33:10.425Z,10.30
2022-12-09T18:35:36.899Z,10.20
2022-12-09T18:38:09.635Z,10.20
2022-12-09T18:40:38.975Z,10.20
2022-12-09T18:43:05.424Z,10.10
2022-12-09T18:45:31.912Z,10.10
2022-12-09T18:47:58.366Z,10.00
2022-12-09T18:50:24.834Z,10.00
2022-12-09T18:52:51.285Z,9.90
2022-12-09T18:55:17.752Z,9.90
2022-12-09T18:57:44.190Z,9.90
2022-12-09T19:00:10.702Z,9.90
2022-12-09T19:02:37.183Z,9.80
2022-12-09T19:05:03.675Z,9.80
2022-12-09T19:07:32.454Z,9.70
2022-12-09T19:09:59.121Z,9.70
2022-12-09T19:15:12.025Z,9.70
2022-12-09T19:17:38.463Z,9.70
2022-12-09T19:20:05.113Z,9.60
2022-12-09T19:22:31.686Z,9.70
2022-12-09T19:24:58.144Z,9.70
2022-12-09T19:27:24.605Z,9.70
2022-12-09T19:29:51.078Z,9.70
2022-12-09T19:32:44.114Z,9.70
2022-12-09T19:35:03.945Z,9.70
2022-12-09T19:37:30.413Z,9.70
2022-12-09T19:39:56.898Z,9.70
2022-12-09T19:42:23.338Z,9.70
2022-12-09T19:45:01.521Z,9.70
2022-12-09T19:47:28.572Z,9.70
2022-12-09T19:49:55.028Z,9.70
2022-12-09T19:52:21.495Z,9.70
2022-12-09T19:54:47.958Z,9.60
2022-12-09T19:57:14.423Z,9.60
2022-12-09T19:59:40.868Z,9.60
2022-12-09T20:02:07.447Z,9.70
2022-12-09T20:04:50.639Z,9.60
2022-12-09T20:07:17.544Z,9.60
2022-12-09T20:09:44.001Z,9.60
2022-12-09T20:12:10.458Z,9.60
2022-12-09T20:14:36.925Z,9.60
2022-12-09T20:17:03.400Z,9.60
2022-12-09T20:19:29.842Z,9.60
2022-12-09T20:21:56.299Z,9.60
2022-12-09T20:24:22.748Z,9.60
2022-12-09T20:26:49.211Z,9.60
2022-12-09T20:29:15.680Z,9.50
2022-12-09T20:31:42.185Z,9.50
2022-12-09T20:34:08.696Z,9.50
2022-12-09T20:36:35.142Z,9.50
2022-12-09T20:39:01.599Z,9.50
2022-12-09T20:41:28.088Z,9.50
2022-12-09T20:43:54.551Z,9.50
2022-12-09T20:46:21.049Z,9.50
2022-12-09T20:48:47.543Z,9.50
2022-12-09T20:51:13.987Z,9.50
2022-12-09T20:53:40.457Z,9.50
2022-12-09T20:56:06.924Z,9.50
2022-12-09T20:58:33.378Z,9.50
2022-12-09T21:00:59.875Z,9.50
2022-12-09T21:03:26.379Z,9.50
2022-12-09T21:05:52.870Z,9.50
2022-12-09T21:08:19.354Z,9.50
2022-12-09T21:10:45.837Z,9.50
2022-12-09T21:13:12.327Z,9.50
2022-12-09T21:15:38.793Z,9.50
2022-12-09T21:18:05.283Z,9.50
2022-12-09T21:20:31.738Z,9.50
2022-12-09T21:23:31.917Z,9.50
2022-12-09T21:25:44.702Z,9.50
2022-12-09T21:28:11.176Z,9.50
2022-12-09T21:30:37.634Z,9.50
2022-12-09T21:33:04.108Z,9.50
2022-12-09T21:35:30.575Z,9.50
2022-12-09T21:37:57.063Z,9.50
2022-12-09T21:40:23.523Z,9.50
2022-12-09T21:42:50.005Z,9.50
2022-12-09T21:45:16.476Z,9.60
2022-12-09T21:47:42.969Z,9.50
2022-12-09T21:50:09.713Z,9.50
2022-12-09T21:52:36.385Z,9.50
2022-12-09T21:55:02.841Z,9.50
2022-12-09T21:57:29.336Z,9.50
2022-12-09T21:59:55.795Z,9.50
2022-12-09T22:02:22.337Z,9.50
2022-12-09T22:04:48.795Z,9.50
2022-12-09T22:07:15.245Z,9.50
2022-12-09T22:09:41.715Z,9.40
2022-12-09T22:12:08.177Z,9.40
2022-12-09T22:14:34.626Z,9.40
2022-12-09T22:17:01.131Z,9.40
2022-12-09T22:19:27.627Z,9.40
2022-12-09T22:21:54.076Z,9.40
2022-12-09T22:24:20.533Z,9.40
2022-12-09T22:26:46.995Z,9.50
2022-12-09T22:29:13.446Z,9.40
2022-12-09T22:31:39.918Z,9.40
2022-12-09T22:34:06.392Z,9.40
2022-12-09T22:36:32.863Z,9.40
2022-12-09T22:38:59.338Z,9.40
2022-12-09T22:41:25.800Z,9.40
2022-12-09T22:43:52.262Z,9.40
2022-12-09T22:46:18.808Z,9.40
2022-12-09T22:48:45.344Z,9.40
2022-12-09T22:51:11.794Z,9.40
2022-12-09T22:53:38.252Z,9.40
2022-12-09T22:56:04.718Z,9.40
2022-12-09T22:58:31.219Z,9.40
2022-12-09T23:00:57.670Z,9.40
2022-12-09T23:03:24.172Z,9.40
2022-12-09T23:05:50.637Z,9.40
2022-12-09T23:08:17.168Z,9.40
2022-12-09T23:10:43.660Z,9.40
2022-12-09T23:13:10.121Z,9.40
2022-12-09T23:15:36.647Z,9.40
2022-12-09T23:18:03.233Z,9.40
2022-12-09T23:20:29.678Z,9.40
2022-12-09T23:22:56.139Z,9.30
2022-12-09T23:25:22.565Z,9.30
2022-12-09T23:27:49.031Z,9.30
2022-12-09T23:30:15.498Z,9.30
2022-12-09T23:32:41.940Z,9.40
2022-12-09T23:35:08.426Z,9.40
2022-12-09T23:37:34.885Z,9.30
2022-12-09T23:40:01.336Z,9.30
2022-12-09T23:42:27.789Z,9.40
2022-12-09T23:44:54.254Z,9.30
2022-12-09T23:47:20.727Z,9.30
2022-12-09T23:49:47.185Z,9.30
2022-12-09T23:52:13.646Z,9.30
2022-12-09T23:54:40.106Z,9.30
2022-12-09T23:57:06.572Z,9.30
2022-12-09T23:59:33.028Z,9.30
